sensor_id;sensor_type;location;lat;lon;timestamp;P1;durP1;ratioP1;P2;durP2;ratioP2
80567;SDS011;69922;45.656;25.586;2023-05-10T00:00:39;4.30;;;3.10;;
80567;SDS011;69922;45.656;25.586;2023-05-10T00:01:47;7.40;;;3.50;;
80567;SDS011;69922;45.656;25.586;2023-05-10T00:02:53;4.60;;;3.30;;
80567;SDS011;69922;45.656;25.586;2023-05-10T00:04:00;4.10;;;3.10;;
80567;SDS011;69922;45.656;25.586;2023-05-10T00:05:07;5.10;;;3.00;;
80567;SDS011;69922;45.656;25.586;2023-05-10T00:06:13;3.40;;;2.60;;
80567;SDS011;69922;45.656;25.586;2023-05-10T00:07:20;4.00;;;2.80;;
80567;SDS011;69922;45.656;25.586;2023-05-10T00:08:27;3.50;;;2.90;;
80567;SDS011;69922;45.656;25.586;2023-05-10T00:09:33;4.90;;;3.00;;
80567;SDS011;69922;45.656;25.586;2023-05-10T00:10:40;3.40;;;3.00;;
80567;SDS011;69922;45.656;25.586;2023-05-10T00:11:46;3.90;;;3.10;;
80567;SDS011;69922;45.656;25.586;2023-05-10T00:12:52;4.60;;;3.10;;
80567;SDS011;69922;45.656;25.586;2023-05-10T00:13:58;4.60;;;3.60;;
80567;SDS011;69922;45.656;25.586;2023-05-10T00:15:06;4.90;;;3.40;;
80567;SDS011;69922;45.656;25.586;2023-05-10T00:16:14;4.50;;;3.40;;
80567;SDS011;69922;45.656;25.586;2023-05-10T00:17:20;4.80;;;3.10;;
80567;SDS011;69922;45.656;25.586;2023-05-10T00:18:26;5.40;;;3.80;;
80567;SDS011;69922;45.656;25.586;2023-05-10T00:19:32;7.30;;;3.50;;
80567;SDS011;69922;45.656;25.586;2023-05-10T00:20:38;4.40;;;3.40;;
80567;SDS011;69922;45.656;25.586;2023-05-10T00:21:45;4.80;;;3.30;;
80567;SDS011;69922;45.656;25.586;2023-05-10T00:22:51;4.00;;;3.10;;
80567;SDS011;69922;45.656;25.586;2023-05-10T00:23:58;5.50;;;3.10;;
80567;SDS011;69922;45.656;25.586;2023-05-10T00:25:06;4.20;;;3.10;;
80567;SDS011;69922;45.656;25.586;2023-05-10T00:26:14;5.00;;;3.30;;
80567;SDS011;69922;45.656;25.586;2023-05-10T00:27:21;5.70;;;3.70;;
80567;SDS011;69922;45.656;25.586;2023-05-10T00:28:28;3.80;;;2.80;;
80567;SDS011;69922;45.656;25.586;2023-05-10T00:29:35;4.60;;;3.30;;
80567;SDS011;69922;45.656;25.586;2023-05-10T00:30:41;6.40;;;3.60;;
80567;SDS011;69922;45.656;25.586;2023-05-10T00:31:47;4.20;;;3.10;;
80567;SDS011;69922;45.656;25.586;2023-05-10T00:32:54;5.20;;;3.20;;
80567;SDS011;69922;45.656;25.586;2023-05-10T00:34:01;4.90;;;3.50;;
80567;SDS011;69922;45.656;25.586;2023-05-10T00:35:07;4.40;;;2.80;;
80567;SDS011;69922;45.656;25.586;2023-05-10T00:36:14;4.00;;;3.00;;
80567;SDS011;69922;45.656;25.586;2023-05-10T00:37:20;4.70;;;3.50;;
80567;SDS011;69922;45.656;25.586;2023-05-10T00:38:26;3.60;;;2.90;;
80567;SDS011;69922;45.656;25.586;2023-05-10T00:39:32;4.20;;;3.20;;
80567;SDS011;69922;45.656;25.586;2023-05-10T00:40:38;5.90;;;3.30;;
80567;SDS011;69922;45.656;25.586;2023-05-10T00:41:45;3.10;;;2.80;;
80567;SDS011;69922;45.656;25.586;2023-05-10T00:42:51;4.40;;;3.10;;
80567;SDS011;69922;45.656;25.586;2023-05-10T00:43:57;5.70;;;3.40;;
80567;SDS011;69922;45.656;25.586;2023-05-10T00:45:06;4.70;;;2.90;;
80567;SDS011;69922;45.656;25.586;2023-05-10T00:46:12;4.30;;;3.20;;
80567;SDS011;69922;45.656;25.586;2023-05-10T00:47:19;4.60;;;3.10;;
80567;SDS011;69922;45.656;25.586;2023-05-10T00:48:26;4.30;;;2.80;;
80567;SDS011;69922;45.656;25.586;2023-05-10T00:49:34;4.60;;;3.70;;
80567;SDS011;69922;45.656;25.586;2023-05-10T00:50:40;5.20;;;3.00;;
80567;SDS011;69922;45.656;25.586;2023-05-10T00:51:46;4.20;;;3.30;;
80567;SDS011;69922;45.656;25.586;2023-05-10T00:52:53;4.50;;;3.00;;
80567;SDS011;69922;45.656;25.586;2023-05-10T00:53:59;4.30;;;3.70;;
80567;SDS011;69922;45.656;25.586;2023-05-10T00:55:07;5.10;;;3.10;;
80567;SDS011;69922;45.656;25.586;2023-05-10T00:56:15;3.60;;;2.80;;
80567;SDS011;69922;45.656;25.586;2023-05-10T00:57:22;5.50;;;3.10;;
80567;SDS011;69922;45.656;25.586;2023-05-10T00:58:28;3.00;;;2.60;;
80567;SDS011;69922;45.656;25.586;2023-05-10T00:59:35;4.60;;;3.00;;
80567;SDS011;69922;45.656;25.586;2023-05-10T01:00:41;5.10;;;3.60;;
80567;SDS011;69922;45.656;25.586;2023-05-10T01:01:50;3.60;;;3.00;;
80567;SDS011;69922;45.656;25.586;2023-05-10T01:02:56;5.20;;;3.00;;
80567;SDS011;69922;45.656;25.586;2023-05-10T01:04:03;4.30;;;3.70;;
80567;SDS011;69922;45.656;25.586;2023-05-10T01:05:09;4.20;;;3.20;;
80567;SDS011;69922;45.656;25.586;2023-05-10T01:06:17;6.80;;;3.40;;
80567;SDS011;69922;45.656;25.586;2023-05-10T01:07:23;5.50;;;3.80;;
80567;SDS011;69922;45.656;25.586;2023-05-10T01:08:29;4.60;;;3.50;;
80567;SDS011;69922;45.656;25.586;2023-05-10T01:09:35;4.70;;;3.20;;
80567;SDS011;69922;45.656;25.586;2023-05-10T01:10:42;4.60;;;3.30;;
80567;SDS011;69922;45.656;25.586;2023-05-10T01:11:49;4.00;;;3.10;;
80567;SDS011;69922;45.656;25.586;2023-05-10T01:12:55;4.00;;;3.00;;
80567;SDS011;69922;45.656;25.586;2023-05-10T01:14:03;4.50;;;3.00;;
80567;SDS011;69922;45.656;25.586;2023-05-10T01:15:11;6.40;;;3.20;;
80567;SDS011;69922;45.656;25.586;2023-05-10T01:16:19;4.70;;;3.00;;
80567;SDS011;69922;45.656;25.586;2023-05-10T01:17:25;5.60;;;3.30;;
80567;SDS011;69922;45.656;25.586;2023-05-10T01:18:32;3.80;;;3.40;;
80567;SDS011;69922;45.656;25.586;2023-05-10T01:19:40;5.40;;;3.30;;
80567;SDS011;69922;45.656;25.586;2023-05-10T01:20:46;4.70;;;3.30;;
80567;SDS011;69922;45.656;25.586;2023-05-10T01:22:02;4.80;;;3.40;;
80567;SDS011;69922;45.656;25.586;2023-05-10T01:23:28;6.10;;;4.20;;
80567;SDS011;69922;45.656;25.586;2023-05-10T01:26:29;4.90;;;3.70;;
80567;SDS011;69922;45.656;25.586;2023-05-10T01:27:53;4.50;;;3.10;;
80567;SDS011;69922;45.656;25.586;2023-05-10T01:29:33;6.30;;;3.50;;
80567;SDS011;69922;45.656;25.586;2023-05-10T01:33:07;5.00;;;3.00;;
80567;SDS011;69922;45.656;25.586;2023-05-10T01:34:20;6.10;;;3.40;;
80567;SDS011;69922;45.656;25.586;2023-05-10T01:35:33;5.40;;;3.90;;
80567;SDS011;69922;45.656;25.586;2023-05-10T01:36:47;5.30;;;4.00;;
80567;SDS011;69922;45.656;25.586;2023-05-10T01:38:02;5.60;;;3.90;;
80567;SDS011;69922;45.656;25.586;2023-05-10T01:39:17;4.50;;;3.90;;
80567;SDS011;69922;45.656;25.586;2023-05-10T01:40:30;6.80;;;4.20;;
80567;SDS011;69922;45.656;25.586;2023-05-10T01:41:42;4.50;;;3.50;;
80567;SDS011;69922;45.656;25.586;2023-05-10T01:42:56;4.10;;;3.40;;
80567;SDS011;69922;45.656;25.586;2023-05-10T01:44:10;5.40;;;4.00;;
80567;SDS011;69922;45.656;25.586;2023-05-10T01:45:24;4.70;;;3.10;;
80567;SDS011;69922;45.656;25.586;2023-05-10T01:46:35;4.50;;;3.50;;
80567;SDS011;69922;45.656;25.586;2023-05-10T01:47:43;5.80;;;3.70;;
80567;SDS011;69922;45.656;25.586;2023-05-10T01:48:53;4.90;;;3.90;;
80567;SDS011;69922;45.656;25.586;2023-05-10T01:50:04;5.80;;;3.60;;
80567;SDS011;69922;45.656;25.586;2023-05-10T01:51:14;6.30;;;4.10;;
80567;SDS011;69922;45.656;25.586;2023-05-10T01:52:30;6.60;;;3.90;;
80567;SDS011;69922;45.656;25.586;2023-05-10T01:54:48;5.50;;;3.70;;
80567;SDS011;69922;45.656;25.586;2023-05-10T01:55:58;6.50;;;4.00;;
80567;SDS011;69922;45.656;25.586;2023-05-10T01:57:06;5.90;;;4.40;;
80567;SDS011;69922;45.656;25.586;2023-05-10T01:58:19;7.20;;;3.90;;
80567;SDS011;69922;45.656;25.586;2023-05-10T01:59:29;5.60;;;3.60;;
80567;SDS011;69922;45.656;25.586;2023-05-10T02:00:42;4.40;;;3.10;;
80567;SDS011;69922;45.656;25.586;2023-05-10T02:02:55;5.70;;;3.90;;
80567;SDS011;69922;45.656;25.586;2023-05-10T02:04:03;5.00;;;3.40;;
80567;SDS011;69922;45.656;25.586;2023-05-10T02:05:11;4.40;;;3.30;;
80567;SDS011;69922;45.656;25.586;2023-05-10T02:06:19;4.60;;;3.50;;
80567;SDS011;69922;45.656;25.586;2023-05-10T02:07:32;4.10;;;3.40;;
80567;SDS011;69922;45.656;25.586;2023-05-10T02:08:40;6.70;;;4.20;;
80567;SDS011;69922;45.656;25.586;2023-05-10T02:09:47;6.00;;;3.60;;
80567;SDS011;69922;45.656;25.586;2023-05-10T02:10:54;5.10;;;3.60;;
80567;SDS011;69922;45.656;25.586;2023-05-10T02:12:03;5.30;;;3.40;;
80567;SDS011;69922;45.656;25.586;2023-05-10T02:13:12;4.70;;;3.30;;
80567;SDS011;69922;45.656;25.586;2023-05-10T02:14:20;5.20;;;3.40;;
80567;SDS011;69922;45.656;25.586;2023-05-10T02:15:28;3.60;;;2.80;;
80567;SDS011;69922;45.656;25.586;2023-05-10T02:16:36;3.60;;;2.80;;
80567;SDS011;69922;45.656;25.586;2023-05-10T02:17:44;4.40;;;2.90;;
80567;SDS011;69922;45.656;25.586;2023-05-10T02:18:52;4.00;;;2.90;;
80567;SDS011;69922;45.656;25.586;2023-05-10T02:20:00;4.70;;;2.90;;
80567;SDS011;69922;45.656;25.586;2023-05-10T02:22:14;3.20;;;2.90;;
80567;SDS011;69922;45.656;25.586;2023-05-10T02:23:22;4.30;;;2.90;;
80567;SDS011;69922;45.656;25.586;2023-05-10T02:24:30;3.70;;;3.00;;
80567;SDS011;69922;45.656;25.586;2023-05-10T02:25:39;4.50;;;3.00;;
80567;SDS011;69922;45.656;25.586;2023-05-10T02:26:47;3.70;;;3.10;;
80567;SDS011;69922;45.656;25.586;2023-05-10T02:27:55;4.90;;;3.50;;
80567;SDS011;69922;45.656;25.586;2023-05-10T02:29:04;4.20;;;3.20;;
80567;SDS011;69922;45.656;25.586;2023-05-10T02:30:13;4.50;;;3.00;;
80567;SDS011;69922;45.656;25.586;2023-05-10T02:31:20;4.30;;;3.10;;
80567;SDS011;69922;45.656;25.586;2023-05-10T02:32:27;3.50;;;2.60;;
80567;SDS011;69922;45.656;25.586;2023-05-10T02:33:35;4.40;;;3.60;;
80567;SDS011;69922;45.656;25.586;2023-05-10T02:34:44;4.30;;;3.50;;
80567;SDS011;69922;45.656;25.586;2023-05-10T02:35:55;5.20;;;3.50;;
80567;SDS011;69922;45.656;25.586;2023-05-10T02:37:03;4.40;;;3.00;;
80567;SDS011;69922;45.656;25.586;2023-05-10T02:38:11;4.00;;;3.50;;
80567;SDS011;69922;45.656;25.586;2023-05-10T02:39:17;4.20;;;2.80;;
80567;SDS011;69922;45.656;25.586;2023-05-10T02:40:25;3.60;;;3.00;;
80567;SDS011;69922;45.656;25.586;2023-05-10T02:41:32;4.70;;;3.20;;
80567;SDS011;69922;45.656;25.586;2023-05-10T02:42:39;4.00;;;3.20;;
80567;SDS011;69922;45.656;25.586;2023-05-10T02:43:48;4.70;;;3.50;;
80567;SDS011;69922;45.656;25.586;2023-05-10T02:44:56;5.40;;;2.90;;
80567;SDS011;69922;45.656;25.586;2023-05-10T02:46:06;3.60;;;2.80;;
80567;SDS011;69922;45.656;25.586;2023-05-10T02:47:12;3.70;;;2.60;;
80567;SDS011;69922;45.656;25.586;2023-05-10T02:48:19;3.10;;;2.70;;
80567;SDS011;69922;45.656;25.586;2023-05-10T02:49:26;4.20;;;3.70;;
80567;SDS011;69922;45.656;25.586;2023-05-10T02:50:32;3.80;;;2.80;;
80567;SDS011;69922;45.656;25.586;2023-05-10T02:51:41;3.60;;;2.80;;
80567;SDS011;69922;45.656;25.586;2023-05-10T02:52:51;4.20;;;3.20;;
80567;SDS011;69922;45.656;25.586;2023-05-10T02:54:01;5.70;;;2.80;;
80567;SDS011;69922;45.656;25.586;2023-05-10T02:55:12;6.80;;;3.40;;
80567;SDS011;69922;45.656;25.586;2023-05-10T02:56:23;6.10;;;3.50;;
80567;SDS011;69922;45.656;25.586;2023-05-10T02:57:40;3.90;;;3.20;;
80567;SDS011;69922;45.656;25.586;2023-05-10T02:58:51;4.60;;;3.20;;
80567;SDS011;69922;45.656;25.586;2023-05-10T02:59:57;6.80;;;3.40;;
80567;SDS011;69922;45.656;25.586;2023-05-10T03:01:04;5.00;;;2.80;;
80567;SDS011;69922;45.656;25.586;2023-05-10T03:02:12;4.30;;;3.20;;
80567;SDS011;69922;45.656;25.586;2023-05-10T03:03:18;3.70;;;2.50;;
80567;SDS011;69922;45.656;25.586;2023-05-10T03:04:26;5.30;;;2.90;;
80567;SDS011;69922;45.656;25.586;2023-05-10T03:05:33;3.60;;;3.10;;
80567;SDS011;69922;45.656;25.586;2023-05-10T03:06:39;4.30;;;3.30;;
80567;SDS011;69922;45.656;25.586;2023-05-10T03:07:48;4.80;;;3.40;;
80567;SDS011;69922;45.656;25.586;2023-05-10T03:10:00;4.90;;;3.10;;
80567;SDS011;69922;45.656;25.586;2023-05-10T03:11:13;6.30;;;3.80;;
80567;SDS011;69922;45.656;25.586;2023-05-10T03:12:31;4.70;;;3.40;;
80567;SDS011;69922;45.656;25.586;2023-05-10T03:13:48;5.90;;;3.60;;
80567;SDS011;69922;45.656;25.586;2023-05-10T03:15:08;4.80;;;3.90;;
80567;SDS011;69922;45.656;25.586;2023-05-10T03:16:22;4.10;;;3.10;;
80567;SDS011;69922;45.656;25.586;2023-05-10T03:17:35;4.90;;;2.70;;
80567;SDS011;69922;45.656;25.586;2023-05-10T03:18:54;4.50;;;3.10;;
80567;SDS011;69922;45.656;25.586;2023-05-10T03:20:06;4.00;;;2.40;;
80567;SDS011;69922;45.656;25.586;2023-05-10T03:21:19;4.90;;;3.10;;
80567;SDS011;69922;45.656;25.586;2023-05-10T03:22:30;4.70;;;3.00;;
80567;SDS011;69922;45.656;25.586;2023-05-10T03:23:42;5.30;;;3.10;;
80567;SDS011;69922;45.656;25.586;2023-05-10T03:24:51;6.10;;;3.70;;
80567;SDS011;69922;45.656;25.586;2023-05-10T03:26:01;4.80;;;4.10;;
80567;SDS011;69922;45.656;25.586;2023-05-10T03:27:09;4.20;;;2.70;;
80567;SDS011;69922;45.656;25.586;2023-05-10T03:28:18;6.50;;;3.20;;
80567;SDS011;69922;45.656;25.586;2023-05-10T03:29:24;5.50;;;3.10;;
80567;SDS011;69922;45.656;25.586;2023-05-10T03:30:32;5.10;;;3.80;;
80567;SDS011;69922;45.656;25.586;2023-05-10T03:31:39;5.80;;;3.70;;
80567;SDS011;69922;45.656;25.586;2023-05-10T03:32:46;4.50;;;3.30;;
80567;SDS011;69922;45.656;25.586;2023-05-10T03:33:52;4.40;;;3.00;;
80567;SDS011;69922;45.656;25.586;2023-05-10T03:34:58;6.00;;;3.50;;
80567;SDS011;69922;45.656;25.586;2023-05-10T03:36:06;4.50;;;3.10;;
80567;SDS011;69922;45.656;25.586;2023-05-10T03:37:13;4.70;;;3.80;;
80567;SDS011;69922;45.656;25.586;2023-05-10T03:38:19;4.80;;;3.60;;
80567;SDS011;69922;45.656;25.586;2023-05-10T03:39:25;4.70;;;3.10;;
80567;SDS011;69922;45.656;25.586;2023-05-10T03:40:32;5.10;;;3.50;;
80567;SDS011;69922;45.656;25.586;2023-05-10T03:41:38;5.10;;;3.30;;
80567;SDS011;69922;45.656;25.586;2023-05-10T03:42:45;5.30;;;3.30;;
80567;SDS011;69922;45.656;25.586;2023-05-10T03:43:51;6.10;;;3.40;;
80567;SDS011;69922;45.656;25.586;2023-05-10T03:44:58;4.10;;;3.40;;
80567;SDS011;69922;45.656;25.586;2023-05-10T03:46:04;4.60;;;3.60;;
80567;SDS011;69922;45.656;25.586;2023-05-10T03:47:10;5.20;;;3.60;;
80567;SDS011;69922;45.656;25.586;2023-05-10T03:48:17;5.80;;;4.00;;
80567;SDS011;69922;45.656;25.586;2023-05-10T03:49:23;5.10;;;3.70;;
80567;SDS011;69922;45.656;25.586;2023-05-10T03:50:29;4.50;;;3.30;;
80567;SDS011;69922;45.656;25.586;2023-05-10T03:51:36;3.70;;;3.00;;
80567;SDS011;69922;45.656;25.586;2023-05-10T03:52:42;5.10;;;3.20;;
80567;SDS011;69922;45.656;25.586;2023-05-10T03:53:48;4.60;;;3.30;;
80567;SDS011;69922;45.656;25.586;2023-05-10T03:54:54;5.20;;;3.40;;
80567;SDS011;69922;45.656;25.586;2023-05-10T03:56:00;5.40;;;3.70;;
80567;SDS011;69922;45.656;25.586;2023-05-10T03:57:07;5.10;;;3.80;;
80567;SDS011;69922;45.656;25.586;2023-05-10T03:58:13;5.60;;;4.10;;
80567;SDS011;69922;45.656;25.586;2023-05-10T03:59:19;6.90;;;4.00;;
80567;SDS011;69922;45.656;25.586;2023-05-10T04:00:25;5.90;;;4.10;;
80567;SDS011;69922;45.656;25.586;2023-05-10T04:01:31;5.60;;;3.70;;
80567;SDS011;69922;45.656;25.586;2023-05-10T04:02:38;6.50;;;4.30;;
80567;SDS011;69922;45.656;25.586;2023-05-10T04:03:44;6.20;;;3.80;;
80567;SDS011;69922;45.656;25.586;2023-05-10T04:04:51;4.90;;;3.90;;
80567;SDS011;69922;45.656;25.586;2023-05-10T04:06:00;6.70;;;4.30;;
80567;SDS011;69922;45.656;25.586;2023-05-10T04:07:06;6.10;;;4.20;;
80567;SDS011;69922;45.656;25.586;2023-05-10T04:08:14;4.70;;;3.90;;
80567;SDS011;69922;45.656;25.586;2023-05-10T04:09:21;4.30;;;3.60;;
80567;SDS011;69922;45.656;25.586;2023-05-10T04:10:27;5.40;;;3.40;;
80567;SDS011;69922;45.656;25.586;2023-05-10T04:11:33;6.50;;;3.70;;
80567;SDS011;69922;45.656;25.586;2023-05-10T04:12:39;6.80;;;4.00;;
80567;SDS011;69922;45.656;25.586;2023-05-10T04:13:46;5.00;;;3.70;;
80567;SDS011;69922;45.656;25.586;2023-05-10T04:14:53;5.90;;;4.00;;
80567;SDS011;69922;45.656;25.586;2023-05-10T04:15:59;7.40;;;4.00;;
80567;SDS011;69922;45.656;25.586;2023-05-10T04:17:05;7.20;;;3.80;;
80567;SDS011;69922;45.656;25.586;2023-05-10T04:18:12;4.30;;;3.40;;
80567;SDS011;69922;45.656;25.586;2023-05-10T04:19:18;6.40;;;3.70;;
80567;SDS011;69922;45.656;25.586;2023-05-10T04:20:24;5.00;;;3.80;;
80567;SDS011;69922;45.656;25.586;2023-05-10T04:21:30;8.10;;;3.90;;
80567;SDS011;69922;45.656;25.586;2023-05-10T04:22:36;3.70;;;3.10;;
80567;SDS011;69922;45.656;25.586;2023-05-10T04:23:42;6.20;;;4.00;;
80567;SDS011;69922;45.656;25.586;2023-05-10T04:24:49;4.80;;;3.70;;
80567;SDS011;69922;45.656;25.586;2023-05-10T04:26:00;5.10;;;3.70;;
80567;SDS011;69922;45.656;25.586;2023-05-10T04:27:06;4.00;;;3.60;;
80567;SDS011;69922;45.656;25.586;2023-05-10T04:28:12;4.20;;;3.80;;
80567;SDS011;69922;45.656;25.586;2023-05-10T04:29:18;4.70;;;3.50;;
80567;SDS011;69922;45.656;25.586;2023-05-10T04:30:24;5.40;;;3.80;;
80567;SDS011;69922;45.656;25.586;2023-05-10T04:31:32;4.50;;;3.50;;
80567;SDS011;69922;45.656;25.586;2023-05-10T04:32:41;9.20;;;4.30;;
80567;SDS011;69922;45.656;25.586;2023-05-10T04:33:47;5.20;;;3.90;;
80567;SDS011;69922;45.656;25.586;2023-05-10T04:34:54;6.20;;;4.50;;
80567;SDS011;69922;45.656;25.586;2023-05-10T04:36:00;5.10;;;3.90;;
80567;SDS011;69922;45.656;25.586;2023-05-10T04:37:08;5.50;;;4.30;;
80567;SDS011;69922;45.656;25.586;2023-05-10T04:38:15;7.20;;;4.20;;
80567;SDS011;69922;45.656;25.586;2023-05-10T04:39:21;5.60;;;4.00;;
80567;SDS011;69922;45.656;25.586;2023-05-10T04:40:27;6.60;;;4.90;;
80567;SDS011;69922;45.656;25.586;2023-05-10T04:41:34;6.00;;;3.90;;
80567;SDS011;69922;45.656;25.586;2023-05-10T04:42:41;6.10;;;4.40;;
80567;SDS011;69922;45.656;25.586;2023-05-10T04:43:47;5.30;;;4.20;;
80567;SDS011;69922;45.656;25.586;2023-05-10T04:44:54;9.00;;;5.10;;
80567;SDS011;69922;45.656;25.586;2023-05-10T04:46:00;5.00;;;4.50;;
80567;SDS011;69922;45.656;25.586;2023-05-10T04:47:06;6.30;;;4.20;;
80567;SDS011;69922;45.656;25.586;2023-05-10T04:48:15;7.40;;;4.10;;
80567;SDS011;69922;45.656;25.586;2023-05-10T04:49:22;6.00;;;4.40;;
80567;SDS011;69922;45.656;25.586;2023-05-10T04:50:28;6.60;;;4.30;;
80567;SDS011;69922;45.656;25.586;2023-05-10T04:51:34;6.50;;;4.30;;
80567;SDS011;69922;45.656;25.586;2023-05-10T04:52:39;7.30;;;5.00;;
80567;SDS011;69922;45.656;25.586;2023-05-10T04:53:46;10.00;;;5.50;;
80567;SDS011;69922;45.656;25.586;2023-05-10T04:55:08;10.30;;;5.70;;
80567;SDS011;69922;45.656;25.586;2023-05-10T04:56:15;6.30;;;5.40;;
80567;SDS011;69922;45.656;25.586;2023-05-10T04:57:21;5.80;;;4.50;;
80567;SDS011;69922;45.656;25.586;2023-05-10T04:58:27;9.50;;;5.00;;
80567;SDS011;69922;45.656;25.586;2023-05-10T04:59:34;9.30;;;5.30;;
80567;SDS011;69922;45.656;25.586;2023-05-10T05:00:42;8.70;;;5.50;;
80567;SDS011;69922;45.656;25.586;2023-05-10T05:01:48;10.60;;;5.60;;
80567;SDS011;69922;45.656;25.586;2023-05-10T05:02:54;13.40;;;5.50;;
80567;SDS011;69922;45.656;25.586;2023-05-10T05:04:00;10.70;;;5.80;;
80567;SDS011;69922;45.656;25.586;2023-05-10T05:05:08;6.80;;;4.50;;
80567;SDS011;69922;45.656;25.586;2023-05-10T05:06:14;4.80;;;3.90;;
80567;SDS011;69922;45.656;25.586;2023-05-10T05:07:20;6.00;;;4.40;;
80567;SDS011;69922;45.656;25.586;2023-05-10T05:08:26;5.30;;;4.00;;
80567;SDS011;69922;45.656;25.586;2023-05-10T05:09:32;6.50;;;4.20;;
80567;SDS011;69922;45.656;25.586;2023-05-10T05:10:38;6.60;;;4.10;;
80567;SDS011;69922;45.656;25.586;2023-05-10T05:11:44;6.00;;;4.40;;
80567;SDS011;69922;45.656;25.586;2023-05-10T05:12:51;7.10;;;4.30;;
80567;SDS011;69922;45.656;25.586;2023-05-10T05:13:58;6.20;;;4.30;;
80567;SDS011;69922;45.656;25.586;2023-05-10T05:15:05;9.50;;;4.40;;
80567;SDS011;69922;45.656;25.586;2023-05-10T05:16:14;7.30;;;4.60;;
80567;SDS011;69922;45.656;25.586;2023-05-10T05:17:20;7.00;;;4.20;;
80567;SDS011;69922;45.656;25.586;2023-05-10T05:18:26;5.20;;;4.50;;
80567;SDS011;69922;45.656;25.586;2023-05-10T05:19:33;8.40;;;4.90;;
80567;SDS011;69922;45.656;25.586;2023-05-10T05:20:40;5.90;;;4.30;;
80567;SDS011;69922;45.656;25.586;2023-05-10T05:21:46;6.50;;;5.20;;
80567;SDS011;69922;45.656;25.586;2023-05-10T05:22:52;9.80;;;5.20;;
80567;SDS011;69922;45.656;25.586;2023-05-10T05:23:58;6.20;;;4.40;;
80567;SDS011;69922;45.656;25.586;2023-05-10T05:25:06;5.70;;;4.10;;
80567;SDS011;69922;45.656;25.586;2023-05-10T05:26:14;8.60;;;4.40;;
80567;SDS011;69922;45.656;25.586;2023-05-10T05:27:20;7.50;;;4.90;;
80567;SDS011;69922;45.656;25.586;2023-05-10T05:28:29;5.60;;;4.20;;
80567;SDS011;69922;45.656;25.586;2023-05-10T05:29:38;10.00;;;4.40;;
80567;SDS011;69922;45.656;25.586;2023-05-10T05:30:45;5.60;;;4.20;;
80567;SDS011;69922;45.656;25.586;2023-05-10T05:31:52;7.40;;;4.00;;
80567;SDS011;69922;45.656;25.586;2023-05-10T05:32:59;6.70;;;4.50;;
80567;SDS011;69922;45.656;25.586;2023-05-10T05:34:05;5.80;;;4.80;;
80567;SDS011;69922;45.656;25.586;2023-05-10T05:35:11;5.80;;;4.20;;
80567;SDS011;69922;45.656;25.586;2023-05-10T05:36:18;8.60;;;4.70;;
80567;SDS011;69922;45.656;25.586;2023-05-10T05:37:24;5.00;;;4.10;;
80567;SDS011;69922;45.656;25.586;2023-05-10T05:38:36;7.60;;;5.20;;
80567;SDS011;69922;45.656;25.586;2023-05-10T05:39:42;6.20;;;4.30;;
80567;SDS011;69922;45.656;25.586;2023-05-10T05:40:49;6.10;;;4.80;;
80567;SDS011;69922;45.656;25.586;2023-05-10T05:41:54;5.60;;;3.60;;
80567;SDS011;69922;45.656;25.586;2023-05-10T05:43:01;7.40;;;4.30;;
80567;SDS011;69922;45.656;25.586;2023-05-10T05:44:07;6.30;;;4.50;;
80567;SDS011;69922;45.656;25.586;2023-05-10T05:45:14;7.20;;;5.00;;
80567;SDS011;69922;45.656;25.586;2023-05-10T05:46:21;6.40;;;4.80;;
80567;SDS011;69922;45.656;25.586;2023-05-10T05:47:27;8.30;;;4.40;;
80567;SDS011;69922;45.656;25.586;2023-05-10T05:48:33;4.90;;;4.30;;
80567;SDS011;69922;45.656;25.586;2023-05-10T05:49:40;8.60;;;4.90;;
80567;SDS011;69922;45.656;25.586;2023-05-10T05:50:46;6.60;;;4.50;;
80567;SDS011;69922;45.656;25.586;2023-05-10T05:51:52;5.50;;;3.90;;
80567;SDS011;69922;45.656;25.586;2023-05-10T05:52:58;6.70;;;4.90;;
80567;SDS011;69922;45.656;25.586;2023-05-10T05:54:05;6.10;;;4.60;;
80567;SDS011;69922;45.656;25.586;2023-05-10T05:55:12;6.70;;;4.40;;
80567;SDS011;69922;45.656;25.586;2023-05-10T05:56:19;10.00;;;4.70;;
80567;SDS011;69922;45.656;25.586;2023-05-10T05:58:33;6.70;;;4.10;;
80567;SDS011;69922;45.656;25.586;2023-05-10T05:59:39;6.10;;;4.60;;
80567;SDS011;69922;45.656;25.586;2023-05-10T06:00:48;6.50;;;4.80;;
80567;SDS011;69922;45.656;25.586;2023-05-10T06:01:55;5.10;;;3.80;;
80567;SDS011;69922;45.656;25.586;2023-05-10T06:03:01;6.80;;;4.50;;
80567;SDS011;69922;45.656;25.586;2023-05-10T06:04:07;7.40;;;4.10;;
80567;SDS011;69922;45.656;25.586;2023-05-10T06:05:14;7.30;;;4.70;;
80567;SDS011;69922;45.656;25.586;2023-05-10T06:06:22;7.00;;;4.50;;
80567;SDS011;69922;45.656;25.586;2023-05-10T06:07:28;6.90;;;4.50;;
80567;SDS011;69922;45.656;25.586;2023-05-10T06:08:35;5.50;;;4.00;;
80567;SDS011;69922;45.656;25.586;2023-05-10T06:09:47;4.80;;;3.80;;
80567;SDS011;69922;45.656;25.586;2023-05-10T06:10:53;5.20;;;4.00;;
80567;SDS011;69922;45.656;25.586;2023-05-10T06:11:59;6.50;;;4.20;;
80567;SDS011;69922;45.656;25.586;2023-05-10T06:13:06;5.90;;;4.10;;
80567;SDS011;69922;45.656;25.586;2023-05-10T06:14:12;7.10;;;4.00;;
80567;SDS011;69922;45.656;25.586;2023-05-10T06:15:18;7.30;;;4.20;;
80567;SDS011;69922;45.656;25.586;2023-05-10T06:16:24;4.50;;;3.60;;
80567;SDS011;69922;45.656;25.586;2023-05-10T06:17:31;7.20;;;5.10;;
80567;SDS011;69922;45.656;25.586;2023-05-10T06:18:37;5.50;;;3.60;;
80567;SDS011;69922;45.656;25.586;2023-05-10T06:19:43;4.40;;;3.70;;
80567;SDS011;69922;45.656;25.586;2023-05-10T06:20:50;5.70;;;3.70;;
80567;SDS011;69922;45.656;25.586;2023-05-10T06:21:57;4.90;;;3.60;;
80567;SDS011;69922;45.656;25.586;2023-05-10T06:23:03;4.60;;;3.90;;
80567;SDS011;69922;45.656;25.586;2023-05-10T06:24:09;4.70;;;3.80;;
80567;SDS011;69922;45.656;25.586;2023-05-10T06:25:15;4.80;;;4.00;;
80567;SDS011;69922;45.656;25.586;2023-05-10T06:26:23;5.70;;;3.90;;
80567;SDS011;69922;45.656;25.586;2023-05-10T06:27:29;6.20;;;4.10;;
80567;SDS011;69922;45.656;25.586;2023-05-10T06:28:35;7.10;;;4.10;;
80567;SDS011;69922;45.656;25.586;2023-05-10T06:29:44;4.70;;;3.60;;
80567;SDS011;69922;45.656;25.586;2023-05-10T06:30:51;4.30;;;3.40;;
80567;SDS011;69922;45.656;25.586;2023-05-10T06:31:57;5.90;;;3.60;;
80567;SDS011;69922;45.656;25.586;2023-05-10T06:33:04;4.80;;;3.60;;
80567;SDS011;69922;45.656;25.586;2023-05-10T06:34:10;5.70;;;4.00;;
80567;SDS011;69922;45.656;25.586;2023-05-10T06:35:19;4.20;;;3.60;;
80567;SDS011;69922;45.656;25.586;2023-05-10T06:36:25;6.80;;;3.90;;
80567;SDS011;69922;45.656;25.586;2023-05-10T06:37:32;5.70;;;4.20;;
80567;SDS011;69922;45.656;25.586;2023-05-10T06:38:39;5.60;;;4.50;;
80567;SDS011;69922;45.656;25.586;2023-05-10T06:39:45;5.90;;;3.80;;
80567;SDS011;69922;45.656;25.586;2023-05-10T06:40:52;5.50;;;3.50;;
80567;SDS011;69922;45.656;25.586;2023-05-10T06:41:58;6.10;;;3.60;;
80567;SDS011;69922;45.656;25.586;2023-05-10T06:43:08;4.80;;;3.30;;
80567;SDS011;69922;45.656;25.586;2023-05-10T06:44:15;5.70;;;3.70;;
80567;SDS011;69922;45.656;25.586;2023-05-10T06:45:21;4.70;;;3.30;;
80567;SDS011;69922;45.656;25.586;2023-05-10T06:46:27;3.80;;;3.10;;
80567;SDS011;69922;45.656;25.586;2023-05-10T06:47:33;4.50;;;4.10;;
80567;SDS011;69922;45.656;25.586;2023-05-10T06:48:42;6.00;;;4.10;;
80567;SDS011;69922;45.656;25.586;2023-05-10T06:49:49;4.30;;;3.30;;
80567;SDS011;69922;45.656;25.586;2023-05-10T06:50:55;7.20;;;3.70;;
80567;SDS011;69922;45.656;25.586;2023-05-10T06:52:01;3.70;;;3.00;;